createdAt,value
2022-12-18T00:02:30.400Z,-9.15
2022-12-18T00:05:34.126Z,-9.11
2022-12-18T00:08:38.045Z,-9.11
2022-12-18T00:11:43.280Z,-9.17
2022-12-18T00:14:46.881Z,-9.14
2022-12-18T00:17:50.533Z,-9.14
2022-12-18T00:20:54.166Z,-9.11
2022-12-18T00:23:58.652Z,-9.35
2022-12-18T00:27:03.797Z,-9.34
2022-12-18T00:30:08.917Z,-9.39
2022-12-18T00:33:13.252Z,-9.29
2022-12-18T00:36:20.360Z,-9.30
2022-12-18T00:39:24.067Z,-9.18
2022-12-18T00:42:46.586Z,-9.14
2022-12-18T00:45:50.278Z,-8.99
2022-12-18T00:48:53.958Z,-8.94
2022-12-18T00:51:57.600Z,-8.96
2022-12-18T00:55:05.986Z,-8.98
2022-12-18T00:58:13.120Z,-8.97
2022-12-18T01:01:17.206Z,-8.93
2022-12-18T01:04:20.881Z,-8.91
2022-12-18T01:07:24.550Z,-8.96
2022-12-18T01:10:28.838Z,-9.02
2022-12-18T01:13:33.866Z,-9.07
2022-12-18T01:16:37.528Z,-9.00
2022-12-18T01:19:41.280Z,-8.95
2022-12-18T01:22:44.907Z,-9.01
2022-12-18T01:25:48.515Z,-9.05
2022-12-18T01:28:53.737Z,-9.07
2022-12-18T01:31:58.553Z,-9.09
2022-12-18T01:35:02.232Z,-9.12
2022-12-18T01:38:06.232Z,-9.11
2022-12-18T01:41:11.484Z,-9.12
2022-12-18T01:44:57.200Z,-9.00
2022-12-18T01:48:05.414Z,-8.95
2022-12-18T01:51:13.068Z,-8.97
2022-12-18T01:54:17.046Z,-8.90
2022-12-18T01:57:21.133Z,-8.94
2022-12-18T02:00:27.693Z,-8.94
2022-12-18T02:03:31.331Z,-8.92
2022-12-18T02:06:43.949Z,-8.90
2022-12-18T02:09:53.206Z,-8.94
2022-12-18T02:13:10.458Z,-8.90
2022-12-18T02:16:24.166Z,-9.01
2022-12-18T02:19:57.197Z,-8.94
2022-12-18T02:23:18.249Z,-8.84
2022-12-18T02:26:31.376Z,-8.89
2022-12-18T02:29:41.170Z,-8.93
2022-12-18T02:32:51.746Z,-8.97
2022-12-18T02:35:59.330Z,-8.88
2022-12-18T02:39:06.264Z,-8.87
2022-12-18T02:42:13.046Z,-9.06
2022-12-18T02:45:16.850Z,-9.05
2022-12-18T02:48:26.144Z,-9.05
2022-12-18T02:51:38.910Z,-9.00
2022-12-18T02:55:05.108Z,-9.00
2022-12-18T02:58:20.956Z,-9.02
2022-12-18T03:01:36.131Z,-9.08
2022-12-18T03:04:48.304Z,-9.12
2022-12-18T03:08:00.125Z,-9.15
2022-12-18T03:11:07.900Z,-9.07
2022-12-18T03:14:17.664Z,-9.09
2022-12-18T03:17:27.327Z,-9.12
2022-12-18T03:20:36.558Z,-9.08
2022-12-18T03:23:49.890Z,-9.15
2022-12-18T03:27:03.202Z,-9.17
2022-12-18T03:30:14.191Z,-9.10
2022-12-18T03:33:26.030Z,-9.22
2022-12-18T03:36:32.795Z,-9.22
2022-12-18T03:39:37.417Z,-9.19
2022-12-18T03:42:52.143Z,-9.21
2022-12-18T03:46:07.758Z,-9.17
2022-12-18T03:49:19.923Z,-9.10
2022-12-18T03:52:32.034Z,-9.26
2022-12-18T03:55:38.189Z,-9.38
2022-12-18T03:58:46.018Z,-9.40
2022-12-18T04:01:56.008Z,-9.45
2022-12-18T04:05:06.412Z,-9.49
2022-12-18T04:08:10.402Z,-9.53
2022-12-18T04:11:14.199Z,-9.44
2022-12-18T04:14:18.600Z,-9.52
2022-12-18T04:17:23.969Z,-9.61
2022-12-18T04:20:27.641Z,-9.65
2022-12-18T04:23:31.466Z,-9.56
2022-12-18T04:26:35.095Z,-9.62
2022-12-18T04:29:38.694Z,-9.66
2022-12-18T04:32:47.741Z,-9.68
2022-12-18T04:35:54.179Z,-9.67
2022-12-18T04:38:58.026Z,-9.70
2022-12-18T04:42:01.623Z,-9.63
2022-12-18T04:45:06.448Z,-9.64
2022-12-18T04:48:11.566Z,-9.68
2022-12-18T04:51:15.559Z,-9.62
2022-12-18T04:54:23.141Z,-9.58
2022-12-18T04:57:27.224Z,-9.55
2022-12-18T05:00:30.865Z,-9.57
2022-12-18T05:03:37.623Z,-9.52
2022-12-18T05:06:41.478Z,-9.57
2022-12-18T05:09:45.146Z,-9.64
2022-12-18T05:13:01.224Z,-9.59
2022-12-18T05:16:06.450Z,-9.61
2022-12-18T05:19:11.564Z,-9.61
2022-12-18T05:22:15.421Z,-9.64
2022-12-18T05:25:19.584Z,-9.63
2022-12-18T05:28:25.698Z,-9.57
2022-12-18T05:31:31.495Z,-9.52
2022-12-18T05:34:39.616Z,-9.49
2022-12-18T05:37:43.684Z,-9.54
2022-12-18T05:40:47.311Z,-9.52
2022-12-18T05:43:50.859Z,-9.59
2022-12-18T05:46:54.563Z,-9.53
2022-12-18T05:49:59.823Z,-9.66
2022-12-18T05:53:03.410Z,-9.59
2022-12-18T05:56:10.577Z,-9.62
2022-12-18T05:59:14.175Z,-9.65
2022-12-18T06:02:18.092Z,-9.60
2022-12-18T06:05:23.260Z,-9.65
2022-12-18T06:08:27.006Z,-9.70
2022-12-18T06:11:30.642Z,-9.62
2022-12-18T06:14:34.357Z,-9.59
2022-12-18T06:17:38.935Z,-9.56
2022-12-18T06:20:43.945Z,-9.56
2022-12-18T06:23:47.539Z,-9.45
2022-12-18T06:26:51.254Z,-9.49
2022-12-18T06:29:54.786Z,-9.49
2022-12-18T06:32:58.759Z,-9.50
2022-12-18T06:36:07.072Z,-9.55
2022-12-18T06:39:10.866Z,-9.55
2022-12-18T06:42:14.565Z,-9.57
2022-12-18T06:45:18.490Z,-9.62
2022-12-18T06:48:22.117Z,-9.62
2022-12-18T06:51:27.544Z,-9.59
2022-12-18T06:54:31.675Z,-9.68
2022-12-18T06:57:35.383Z,-9.64
2022-12-18T07:00:38.992Z,-9.64
2022-12-18T07:03:44.969Z,-9.65
2022-12-18T07:06:50.295Z,-9.64
2022-12-18T07:09:54.288Z,-9.59
2022-12-18T07:12:58.325Z,-9.58
2022-12-18T07:16:16.014Z,-9.56
2022-12-18T07:19:24.767Z,-9.55
2022-12-18T07:22:29.813Z,-9.56
2022-12-18T07:25:35.990Z,-9.56
2022-12-18T07:28:42.033Z,-9.60
2022-12-18T07:31:45.891Z,-9.60
2022-12-18T07:34:49.556Z,-9.50
2022-12-18T07:37:54.549Z,-9.50
2022-12-18T07:41:02.989Z,-9.47
2022-12-18T07:44:06.805Z,-9.41
2022-12-18T07:47:12.299Z,-9.51
2022-12-18T07:50:16.652Z,-9.40
2022-12-18T07:53:21.921Z,-9.32
2022-12-18T07:56:27.590Z,-9.19
2022-12-18T07:59:31.674Z,-9.16
2022-12-18T08:02:35.331Z,-9.21
2022-12-18T08:05:39.304Z,-9.14
2022-12-18T08:08:44.257Z,-9.08
2022-12-18T08:11:47.891Z,-8.99
2022-12-18T08:14:51.460Z,-8.94
2022-12-18T08:17:59.201Z,-8.94
2022-12-18T08:21:11.777Z,-8.90
2022-12-18T08:24:16.763Z,-8.84
2022-12-18T08:27:29.347Z,-8.76
2022-12-18T08:30:33.724Z,-8.69
2022-12-18T08:33:38.842Z,-8.55
2022-12-18T08:36:42.958Z,-8.55
2022-12-18T08:39:48.061Z,-8.47
2022-12-18T08:43:09.066Z,-8.34
2022-12-18T08:46:13.113Z,-8.30
2022-12-18T08:49:16.765Z,-8.21
2022-12-18T08:52:21.133Z,-8.12
2022-12-18T08:55:26.367Z,-7.98
2022-12-18T08:58:30.265Z,-7.89
2022-12-18T09:01:34.043Z,-7.76
2022-12-18T09:04:40.934Z,-7.77
2022-12-18T09:07:44.911Z,-7.78
2022-12-18T09:10:52.287Z,-7.71
2022-12-18T09:13:57.313Z,-7.62
2022-12-18T09:17:01.011Z,-7.54
2022-12-18T09:20:05.381Z,-7.54
2022-12-18T09:23:10.180Z,-7.43
2022-12-18T09:26:15.416Z,-7.35
2022-12-18T09:29:19.223Z,-7.19
2022-12-18T09:32:22.851Z,-7.13
2022-12-18T09:35:26.523Z,-6.97
2022-12-18T09:38:30.157Z,-6.82
2022-12-18T09:41:46.845Z,-6.71
2022-12-18T09:44:55.457Z,-6.72
2022-12-18T09:48:02.261Z,-6.62
2022-12-18T09:51:17.787Z,-6.58
2022-12-18T09:54:27.985Z,-6.55
2022-12-18T09:57:38.473Z,-6.43
2022-12-18T10:00:45.545Z,-6.40
2022-12-18T10:03:50.357Z,-6.32
2022-12-18T10:07:09.429Z,-6.25
2022-12-18T10:10:36.470Z,-6.24
2022-12-18T10:13:52.475Z,-6.25
2022-12-18T10:17:12.731Z,-6.16
2022-12-18T10:20:29.499Z,-6.14
2022-12-18T10:23:48.011Z,-6.05
2022-12-18T10:26:54.524Z,-5.93
2022-12-18T10:30:00.479Z,-5.92
2022-12-18T10:33:05.523Z,-5.90
2022-12-18T10:36:09.906Z,-5.91
2022-12-18T10:39:23.528Z,-5.84
2022-12-18T10:42:27.241Z,-5.86
2022-12-18T10:45:33.321Z,-5.79
2022-12-18T10:48:49.530Z,-5.77
2022-12-18T10:52:07.573Z,-5.75
2022-12-18T10:55:20.135Z,-5.70
2022-12-18T10:58:32.565Z,-5.74
2022-12-18T11:01:55.961Z,-5.65
2022-12-18T11:05:00.296Z,-5.59
2022-12-18T11:08:04.714Z,-5.49
2022-12-18T11:11:20.762Z,-5.42
2022-12-18T11:14:28.420Z,-5.30
2022-12-18T11:17:37.997Z,-5.28
2022-12-18T11:20:42.248Z,-5.20
2022-12-18T11:23:53.162Z,-5.16
2022-12-18T11:26:59.780Z,-5.02
2022-12-18T11:30:23.696Z,-4.94
2022-12-18T11:33:28.978Z,-4.91
2022-12-18T11:36:40.202Z,-4.82
2022-12-18T11:39:52.214Z,-4.65
2022-12-18T11:43:05.376Z,-4.49
2022-12-18T11:46:19.834Z,-4.32
2022-12-18T11:49:35.212Z,-4.21
2022-12-18T11:52:42.763Z,-3.94
2022-12-18T11:56:03.774Z,-3.87
2022-12-18T11:59:21.226Z,-3.70
2022-12-18T12:02:49.156Z,-3.80
2022-12-18T12:06:15.710Z,-3.72
2022-12-18T12:09:30.939Z,-3.55
2022-12-18T12:12:57.176Z,-3.47
2022-12-18T12:16:16.334Z,-3.68
2022-12-18T12:19:41.039Z,-3.62
2022-12-18T12:23:05.420Z,-3.43
2022-12-18T12:26:14.067Z,-3.48
2022-12-18T12:29:42.781Z,-3.53
2022-12-18T12:33:07.582Z,-3.44
2022-12-18T12:36:23.847Z,-3.45
2022-12-18T12:39:36.292Z,-3.41
2022-12-18T12:43:05.926Z,-3.40
2022-12-18T12:46:12.713Z,-3.39
2022-12-18T12:49:25.694Z,-3.49
2022-12-18T12:52:38.842Z,-3.46
2022-12-18T12:55:45.468Z,-3.53
2022-12-18T12:59:04.650Z,-3.59
2022-12-18T13:02:22.993Z,-3.58
2022-12-18T13:05:37.508Z,-3.62
2022-12-18T13:08:58.338Z,-3.59
2022-12-18T13:13:46.668Z,-3.66
2022-12-18T13:16:08.779Z,-3.64
2022-12-18T13:19:26.894Z,-3.64
2022-12-18T13:22:37.673Z,-3.68
2022-12-18T13:25:41.707Z,-3.66
2022-12-18T13:28:58.906Z,-3.59
2022-12-18T13:32:03.997Z,-3.65
2022-12-18T13:35:44.109Z,-3.70
2022-12-18T13:38:48.102Z,-3.71
2022-12-18T13:41:55.229Z,-3.68
2022-12-18T13:45:00.992Z,-3.67
2022-12-18T13:48:06.861Z,-3.68
2022-12-18T13:51:13.626Z,-3.67
2022-12-18T13:54:25.053Z,-3.66
2022-12-18T13:57:31.630Z,-3.63
2022-12-18T14:00:37.317Z,-3.70
2022-12-18T14:03:41.693Z,-3.70
2022-12-18T14:06:48.713Z,-3.75
2022-12-18T14:10:06.446Z,-3.71
2022-12-18T14:13:31.492Z,-3.74
2022-12-18T14:16:37.196Z,-3.70
2022-12-18T14:19:46.958Z,-3.66
2022-12-18T14:22:51.935Z,-3.65
2022-12-18T14:25:56.461Z,-3.67
2022-12-18T14:29:19.764Z,-3.66
2022-12-18T14:32:26.687Z,-3.70
2022-12-18T14:35:31.107Z,-3.72
2022-12-18T14:38:38.365Z,-3.67
2022-12-18T14:41:42.650Z,-3.67
2022-12-18T14:48:23.059Z,-3.72
2022-12-18T14:51:28.863Z,-3.69
2022-12-18T14:54:34.105Z,-3.69
2022-12-18T14:57:41.467Z,-3.70
2022-12-18T15:00:46.592Z,-3.78
2022-12-18T15:03:53.324Z,-3.85
2022-12-18T15:07:17.414Z,-3.88
2022-12-18T15:10:25.270Z,-3.87
2022-12-18T15:13:29.865Z,-3.79
2022-12-18T15:16:33.906Z,-3.84
2022-12-18T15:19:43.726Z,-3.80
2022-12-18T15:22:50.607Z,-3.80
2022-12-18T15:25:59.865Z,-3.81
2022-12-18T15:29:04.437Z,-3.81
2022-12-18T15:32:23.060Z,-3.81
2022-12-18T15:35:29.732Z,-3.76
2022-12-18T15:38:34.427Z,-3.78
2022-12-18T15:41:38.798Z,-3.70
2022-12-18T15:44:43.317Z,-3.55
2022-12-18T15:47:47.014Z,-3.52
2022-12-18T15:50:54.739Z,-3.37
2022-12-18T15:54:02.562Z,-3.42
2022-12-18T15:57:23.959Z,-3.11
2022-12-18T16:00:28.110Z,-3.39
2022-12-18T16:03:31.814Z,-3.47
2022-12-18T16:07:05.293Z,-3.49
2022-12-18T16:10:02.873Z,-3.44
2022-12-18T16:13:06.823Z,-3.32
2022-12-18T16:16:11.184Z,-3.24
2022-12-18T16:19:15.064Z,-3.20
2022-12-18T16:22:24.559Z,-3.14
2022-12-18T16:25:30.999Z,-3.13
2022-12-18T16:28:36.019Z,-3.05
2022-12-18T16:31:40.809Z,-2.94
2022-12-18T16:34:46.548Z,-2.89
2022-12-18T16:37:52.482Z,-2.84
2022-12-18T16:41:13.142Z,-2.82
2022-12-18T16:44:17.248Z,-2.76
2022-12-18T16:47:22.094Z,-2.73
2022-12-18T16:50:25.961Z,-2.75
2022-12-18T16:53:31.195Z,-2.77
2022-12-18T16:56:36.407Z,-2.78
2022-12-18T16:59:40.138Z,-2.74
2022-12-18T17:02:44.550Z,-2.68
2022-12-18T17:05:52.978Z,-2.64
2022-12-18T17:09:03.255Z,-2.70
2022-12-18T17:12:07.833Z,-2.71
2022-12-18T17:15:13.170Z,-2.76
2022-12-18T17:18:17.443Z,-2.77
2022-12-18T17:21:21.331Z,-2.77
2022-12-18T17:24:31.394Z,-2.75
2022-12-18T17:27:38.296Z,-2.79
2022-12-18T17:30:44.447Z,-2.82
2022-12-18T17:33:48.584Z,-2.73
2022-12-18T17:36:52.414Z,-2.81
2022-12-18T17:39:57.467Z,-2.70
2022-12-18T17:43:01.325Z,-2.78
2022-12-18T17:46:07.267Z,-2.73
2022-12-18T17:49:14.157Z,-2.74
2022-12-18T17:52:18.012Z,-2.75
2022-12-18T17:55:23.412Z,-2.75
2022-12-18T17:58:27.403Z,-2.73
2022-12-18T18:01:31.196Z,-2.69
2022-12-18T18:04:35.218Z,-2.78
2022-12-18T18:07:41.230Z,-2.67
2022-12-18T18:10:48.971Z,-2.68
2022-12-18T18:14:01.706Z,-2.71
2022-12-18T18:17:05.502Z,-2.65
2022-12-18T18:20:10.544Z,-2.65
2022-12-18T18:23:14.284Z,-2.69
2022-12-18T18:26:19.837Z,-2.60
2022-12-18T18:29:27.835Z,-2.61
2022-12-18T18:32:32.779Z,-2.63
2022-12-18T18:39:02.177Z,-2.61
2022-12-18T18:42:07.643Z,-2.62
2022-12-18T18:45:12.573Z,-2.57
2022-12-18T18:48:16.114Z,-2.62
2022-12-18T18:51:22.618Z,-2.62
2022-12-18T18:54:27.042Z,-2.65
2022-12-18T18:57:32.102Z,-2.59
2022-12-18T19:00:35.857Z,-2.60
2022-12-18T19:03:41.174Z,-2.58
2022-12-18T19:06:46.696Z,-2.61
2022-12-18T19:09:52.159Z,-2.62
2022-12-18T19:13:22.698Z,-2.58
2022-12-18T19:16:28.413Z,-2.56
2022-12-18T19:19:33.458Z,-2.54
2022-12-18T19:22:37.222Z,-2.56
2022-12-18T19:25:41.734Z,-2.59
2022-12-18T19:28:48.679Z,-2.53
2022-12-18T19:31:52.419Z,-2.56
2022-12-18T19:34:56.023Z,-2.48
2022-12-18T19:38:00.747Z,-2.51
2022-12-18T19:41:06.429Z,-2.51
2022-12-18T19:44:13.913Z,-2.54
2022-12-18T19:47:17.640Z,-2.52
2022-12-18T19:50:21.419Z,-2.53
2022-12-18T19:53:25.248Z,-2.51
2022-12-18T19:56:32.475Z,-2.65
2022-12-18T19:59:37.497Z,-2.53
2022-12-18T20:02:42.970Z,-2.63
2022-12-18T20:05:46.732Z,-2.67
2022-12-18T20:08:51.928Z,-2.64
2022-12-18T20:11:57.598Z,-2.67
2022-12-18T20:15:02.931Z,-2.76
2022-12-18T20:18:06.769Z,-2.79
2022-12-18T20:21:13.843Z,-2.82
2022-12-18T20:24:17.940Z,-2.87
2022-12-18T20:27:22.038Z,-2.95
2022-12-18T20:30:29.323Z,-2.99
2022-12-18T20:33:34.088Z,-3.02
2022-12-18T20:36:37.756Z,-3.04
2022-12-18T20:39:42.375Z,-3.10
2022-12-18T20:42:46.726Z,-3.07
2022-12-18T20:45:51.867Z,-3.05
2022-12-18T20:48:58.401Z,-3.13
2022-12-18T20:52:03.085Z,-3.12
2022-12-18T20:55:08.282Z,-3.18
2022-12-18T20:58:11.984Z,-3.14
2022-12-18T21:01:20.938Z,-3.15
2022-12-18T21:04:26.350Z,-3.11
2022-12-18T21:07:31.122Z,-3.18
2022-12-18T21:10:34.803Z,-3.11
2022-12-18T21:13:37.673Z,-3.11
2022-12-18T21:16:44.165Z,-3.11
2022-12-18T21:19:47.874Z,-3.06
2022-12-18T21:22:52.771Z,-3.08
2022-12-18T21:26:18.324Z,-3.11
2022-12-18T21:29:24.373Z,-3.09
2022-12-18T21:32:32.171Z,-3.04
2022-12-18T21:35:37.320Z,-3.07
2022-12-18T21:38:41.063Z,-3.09
2022-12-18T21:42:03.461Z,-3.07
2022-12-18T21:45:08.498Z,-3.01
2022-12-18T21:48:13.572Z,-3.04
2022-12-18T21:51:17.221Z,-3.02
2022-12-18T21:54:22.116Z,-3.01
2022-12-18T21:57:25.807Z,-3.03
2022-12-18T22:00:29.513Z,-3.05
2022-12-18T22:03:34.619Z,-3.06
2022-12-18T22:06:38.415Z,-3.07
2022-12-18T22:09:42.710Z,-3.04
2022-12-18T22:12:46.309Z,-3.12
2022-12-18T22:15:50.095Z,-3.12
2022-12-18T22:18:55.438Z,-3.10
2022-12-18T22:21:59.125Z,-3.07
2022-12-18T22:25:02.789Z,-3.09
2022-12-18T22:28:24.179Z,-3.06
2022-12-18T22:31:28.028Z,-3.03
2022-12-18T22:34:36.412Z,-2.95
2022-12-18T22:37:40.362Z,-2.98
2022-12-18T22:40:44.020Z,-3.04
2022-12-18T22:43:47.602Z,-2.94
2022-12-18T22:47:05.965Z,-2.95
2022-12-18T22:50:14.982Z,-2.89
2022-12-18T22:53:18.759Z,-2.91
2022-12-18T22:56:22.376Z,-2.93
2022-12-18T22:59:26.175Z,-2.85
2022-12-18T23:02:29.961Z,-2.88
2022-12-18T23:05:35.418Z,-2.93
2022-12-18T23:08:39.056Z,-2.85
2022-12-18T23:11:42.811Z,-2.90
2022-12-18T23:14:47.351Z,-2.83
2022-12-18T23:17:51.077Z,-2.82
2022-12-18T23:20:56.037Z,-2.79
2022-12-18T23:23:59.976Z,-2.80
2022-12-18T23:27:03.530Z,-2.80
2022-12-18T23:30:12.050Z,-2.81
2022-12-18T23:33:15.589Z,-2.78
2022-12-18T23:36:22.284Z,-2.80
2022-12-18T23:39:29.298Z,-2.77
2022-12-18T23:42:33.548Z,-2.77
2022-12-18T23:45:39.782Z,-2.75
2022-12-18T23:48:43.455Z,-2.70
2022-12-18T23:51:48.492Z,-2.63
2022-12-18T23:54:52.066Z,-2.63
2022-12-18T23:57:55.736Z,-2.64
